sensor_id;sensor_type;location;lat;lon;timestamp;pressure;altitude;pressure_sealevel;temperature;humidity
14790;BME280;7486;51.010;10.366;2023-02-19T00:01:46;98335.25;;;5.42;95.04
14790;BME280;7486;51.010;10.366;2023-02-19T00:04:15;98348.03;;;5.45;95.16
14790;BME280;7486;51.010;10.366;2023-02-19T00:06:43;98326.81;;;5.55;95.08
14790;BME280;7486;51.010;10.366;2023-02-19T00:09:11;98334.41;;;5.50;94.33
14790;BME280;7486;51.010;10.366;2023-02-19T00:11:38;98327.22;;;5.36;95.48
14790;BME280;7486;51.010;10.366;2023-02-19T00:14:05;98313.84;;;5.14;96.99
14790;BME280;7486;51.010;10.366;2023-02-19T00:16:35;98316.59;;;5.21;96.63
14790;BME280;7486;51.010;10.366;2023-02-19T00:19:04;98313.84;;;5.14;96.65
14790;BME280;7486;51.010;10.366;2023-02-19T00:21:31;98301.03;;;5.03;97.29
14790;BME280;7486;51.010;10.366;2023-02-19T00:24:01;98298.56;;;5.18;97.06
14790;BME280;7486;51.010;10.366;2023-02-19T00:26:28;98266.75;;;5.05;96.65
14790;BME280;7486;51.010;10.366;2023-02-19T00:28:56;98291.84;;;5.24;96.76
14790;BME280;7486;51.010;10.366;2023-02-19T00:31:28;98284.91;;;5.31;95.37
14790;BME280;7486;51.010;10.366;2023-02-19T00:34:00;98281.75;;;5.35;94.91
14790;BME280;7486;51.010;10.366;2023-02-19T00:36:29;98270.13;;;5.30;94.95
14790;BME280;7486;51.010;10.366;2023-02-19T00:38:57;98264.75;;;5.23;95.21
14790;BME280;7486;51.010;10.366;2023-02-19T00:41:24;98266.41;;;5.16;95.49
14790;BME280;7486;51.010;10.366;2023-02-19T00:43:56;98263.75;;;5.24;95.50
14790;BME280;7486;51.010;10.366;2023-02-19T00:46:24;98262.53;;;5.35;94.83
14790;BME280;7486;51.010;10.366;2023-02-19T00:48:52;98258.19;;;5.27;94.49
14790;BME280;7486;51.010;10.366;2023-02-19T00:51:21;98264.41;;;5.26;95.19
14790;BME280;7486;51.010;10.366;2023-02-19T00:53:48;98281.34;;;5.24;95.00
14790;BME280;7486;51.010;10.366;2023-02-19T00:56:15;98291.09;;;5.38;94.43
14790;BME280;7486;51.010;10.366;2023-02-19T00:58:42;98290.66;;;5.34;94.07
14790;BME280;7486;51.010;10.366;2023-02-19T01:01:09;98275.53;;;5.36;94.45
14790;BME280;7486;51.010;10.366;2023-02-19T01:03:37;98271.09;;;5.37;94.11
14790;BME280;7486;51.010;10.366;2023-02-19T01:06:06;98269.31;;;5.29;94.92
14790;BME280;7486;51.010;10.366;2023-02-19T01:08:33;98257.72;;;5.15;94.80
14790;BME280;7486;51.010;10.366;2023-02-19T01:11:01;98255.56;;;5.27;95.20
14790;BME280;7486;51.010;10.366;2023-02-19T01:13:29;98247.69;;;5.11;94.97
14790;BME280;7486;51.010;10.366;2023-02-19T01:16:15;98239.81;;;5.11;96.11
14790;BME280;7486;51.010;10.366;2023-02-19T01:18:43;98231.47;;;5.15;96.00
14790;BME280;7486;51.010;10.366;2023-02-19T01:21:21;98230.25;;;5.34;94.28
14790;BME280;7486;51.010;10.366;2023-02-19T01:23:49;98226.00;;;5.25;95.41
14790;BME280;7486;51.010;10.366;2023-02-19T01:26:18;98223.81;;;5.37;93.82
14790;BME280;7486;51.010;10.366;2023-02-19T01:28:48;98231.59;;;5.22;94.97
14790;BME280;7486;51.010;10.366;2023-02-19T01:31:20;98223.50;;;5.32;94.71
14790;BME280;7486;51.010;10.366;2023-02-19T01:33:59;98216.78;;;5.29;94.42
14790;BME280;7486;51.010;10.366;2023-02-19T01:36:27;98232.44;;;5.45;94.06
14790;BME280;7486;51.010;10.366;2023-02-19T01:38:54;98225.28;;;5.39;93.77
14790;BME280;7486;51.010;10.366;2023-02-19T01:41:23;98228.25;;;5.36;94.18
14790;BME280;7486;51.010;10.366;2023-02-19T01:43:57;98223.88;;;5.21;94.92
14790;BME280;7486;51.010;10.366;2023-02-19T01:49:07;98221.91;;;5.23;95.09
14790;BME280;7486;51.010;10.366;2023-02-19T01:51:39;98173.63;;;4.93;95.51
14790;BME280;7486;51.010;10.366;2023-02-19T01:54:08;98211.06;;;5.26;94.80
14790;BME280;7486;51.010;10.366;2023-02-19T01:56:37;98206.97;;;5.23;94.82
14790;BME280;7486;51.010;10.366;2023-02-19T01:59:07;98205.00;;;5.25;94.96
14790;BME280;7486;51.010;10.366;2023-02-19T02:01:36;98201.72;;;5.23;95.41
14790;BME280;7486;51.010;10.366;2023-02-19T02:04:07;98192.09;;;5.07;96.89
14790;BME280;7486;51.010;10.366;2023-02-19T02:06:41;98192.78;;;5.01;97.99
14790;BME280;7486;51.010;10.366;2023-02-19T02:09:10;98179.78;;;5.16;96.87
14790;BME280;7486;51.010;10.366;2023-02-19T02:11:38;98191.72;;;5.18;96.92
14790;BME280;7486;51.010;10.366;2023-02-19T02:14:07;98186.91;;;5.30;96.49
14790;BME280;7486;51.010;10.366;2023-02-19T02:19:29;98189.59;;;5.22;96.27
14790;BME280;7486;51.010;10.366;2023-02-19T02:22:25;98174.03;;;5.12;96.52
14790;BME280;7486;51.010;10.366;2023-02-19T02:27:38;98172.88;;;5.15;96.81
14790;BME280;7486;51.010;10.366;2023-02-19T02:33:35;98165.78;;;5.46;95.18
14790;BME280;7486;51.010;10.366;2023-02-19T02:36:09;98170.34;;;5.52;94.06
14790;BME280;7486;51.010;10.366;2023-02-19T02:38:42;98168.53;;;5.53;94.24
14790;BME280;7486;51.010;10.366;2023-02-19T02:41:10;98129.34;;;5.21;94.34
14790;BME280;7486;51.010;10.366;2023-02-19T02:43:38;98154.88;;;5.35;95.30
14790;BME280;7486;51.010;10.366;2023-02-19T02:46:05;98159.00;;;5.29;95.88
14790;BME280;7486;51.010;10.366;2023-02-19T02:48:44;98158.06;;;5.22;96.50
14790;BME280;7486;51.010;10.366;2023-02-19T02:51:29;98151.44;;;5.34;97.12
14790;BME280;7486;51.010;10.366;2023-02-19T02:54:11;98147.88;;;5.27;97.49
14790;BME280;7486;51.010;10.366;2023-02-19T02:56:42;98150.06;;;5.07;98.36
14790;BME280;7486;51.010;10.366;2023-02-19T02:59:10;98147.28;;;5.09;99.01
14790;BME280;7486;51.010;10.366;2023-02-19T03:04:20;98135.94;;;4.86;99.82
14790;BME280;7486;51.010;10.366;2023-02-19T03:06:49;98139.81;;;4.98;100.00
14790;BME280;7486;51.010;10.366;2023-02-19T03:09:30;98148.94;;;5.10;99.38
14790;BME280;7486;51.010;10.366;2023-02-19T03:12:01;98129.63;;;5.03;99.41
14790;BME280;7486;51.010;10.366;2023-02-19T03:14:42;98134.03;;;5.02;99.01
14790;BME280;7486;51.010;10.366;2023-02-19T03:17:17;98137.25;;;5.12;98.91
14790;BME280;7486;51.010;10.366;2023-02-19T03:19:49;98132.41;;;5.32;97.83
14790;BME280;7486;51.010;10.366;2023-02-19T03:22:30;98132.75;;;5.29;96.83
14790;BME280;7486;51.010;10.366;2023-02-19T03:25:14;98031.75;;;4.63;97.24
14790;BME280;7486;51.010;10.366;2023-02-19T03:27:43;98120.25;;;5.31;96.90
14790;BME280;7486;51.010;10.366;2023-02-19T03:30:18;98118.75;;;5.37;95.95
14790;BME280;7486;51.010;10.366;2023-02-19T03:35:34;98100.19;;;5.15;96.31
14790;BME280;7486;51.010;10.366;2023-02-19T03:38:10;98082.28;;;5.11;96.36
14790;BME280;7486;51.010;10.366;2023-02-19T03:40:55;98086.25;;;5.15;95.65
14790;BME280;7486;51.010;10.366;2023-02-19T03:49:03;98104.63;;;5.15;96.24
14790;BME280;7486;51.010;10.366;2023-02-19T03:51:37;98124.47;;;5.40;95.85
14790;BME280;7486;51.010;10.366;2023-02-19T03:56:37;98112.69;;;5.36;97.11
14790;BME280;7486;51.010;10.366;2023-02-19T03:59:40;98105.28;;;5.09;97.58
14790;BME280;7486;51.010;10.366;2023-02-19T04:02:20;98112.72;;;5.28;97.39
14790;BME280;7486;51.010;10.366;2023-02-19T04:04:58;98119.28;;;5.32;96.58
14790;BME280;7486;51.010;10.366;2023-02-19T04:07:32;98111.44;;;5.24;97.10
14790;BME280;7486;51.010;10.366;2023-02-19T04:10:00;98111.28;;;5.26;96.39
14790;BME280;7486;51.010;10.366;2023-02-19T04:12:29;98124.63;;;5.39;95.22
14790;BME280;7486;51.010;10.366;2023-02-19T04:15:02;98125.03;;;5.28;95.89
14790;BME280;7486;51.010;10.366;2023-02-19T04:17:38;98133.69;;;5.36;95.25
14790;BME280;7486;51.010;10.366;2023-02-19T04:20:09;98135.22;;;5.31;95.36
14790;BME280;7486;51.010;10.366;2023-02-19T04:22:38;98141.50;;;5.22;95.96
14790;BME280;7486;51.010;10.366;2023-02-19T04:25:06;98125.50;;;5.31;95.59
14790;BME280;7486;51.010;10.366;2023-02-19T04:27:37;98138.63;;;5.31;95.17
14790;BME280;7486;51.010;10.366;2023-02-19T04:30:06;98142.09;;;5.32;95.56
14790;BME280;7486;51.010;10.366;2023-02-19T04:32:33;98109.00;;;5.23;94.75
14790;BME280;7486;51.010;10.366;2023-02-19T04:35:00;98145.31;;;5.42;94.60
14790;BME280;7486;51.010;10.366;2023-02-19T04:37:26;98139.22;;;5.41;94.73
14790;BME280;7486;51.010;10.366;2023-02-19T04:39:53;98142.19;;;5.38;95.02
14790;BME280;7486;51.010;10.366;2023-02-19T04:42:20;98088.28;;;4.97;95.38
14790;BME280;7486;51.010;10.366;2023-02-19T04:44:46;98143.97;;;5.23;96.51
14790;BME280;7486;51.010;10.366;2023-02-19T04:47:13;98136.28;;;5.44;95.79
14790;BME280;7486;51.010;10.366;2023-02-19T04:49:40;98145.88;;;5.52;95.06
14790;BME280;7486;51.010;10.366;2023-02-19T04:52:07;98146.25;;;5.72;94.16
14790;BME280;7486;51.010;10.366;2023-02-19T04:54:33;98170.34;;;5.52;94.32
14790;BME280;7486;51.010;10.366;2023-02-19T04:57:00;98161.94;;;5.34;95.96
14790;BME280;7486;51.010;10.366;2023-02-19T04:59:27;98177.47;;;5.44;96.41
14790;BME280;7486;51.010;10.366;2023-02-19T05:01:54;98175.00;;;5.42;95.61
14790;BME280;7486;51.010;10.366;2023-02-19T05:04:20;98188.34;;;5.41;96.81
14790;BME280;7486;51.010;10.366;2023-02-19T05:06:47;98194.06;;;5.44;96.38
14790;BME280;7486;51.010;10.366;2023-02-19T05:09:14;98195.91;;;5.36;97.64
14790;BME280;7486;51.010;10.366;2023-02-19T05:11:40;98190.66;;;5.36;97.46
14790;BME280;7486;51.010;10.366;2023-02-19T05:14:07;98199.22;;;5.30;98.25
14790;BME280;7486;51.010;10.366;2023-02-19T05:16:34;98194.00;;;5.22;98.71
14790;BME280;7486;51.010;10.366;2023-02-19T05:19:01;98202.06;;;5.20;98.73
14790;BME280;7486;51.010;10.366;2023-02-19T05:21:27;98206.41;;;5.36;97.93
14790;BME280;7486;51.010;10.366;2023-02-19T05:23:54;98194.13;;;5.28;97.49
14790;BME280;7486;51.010;10.366;2023-02-19T05:26:22;98194.09;;;5.36;97.23
14790;BME280;7486;51.010;10.366;2023-02-19T05:28:51;98208.41;;;5.56;96.62
14790;BME280;7486;51.010;10.366;2023-02-19T05:31:19;98201.31;;;5.65;95.44
14790;BME280;7486;51.010;10.366;2023-02-19T05:33:46;98207.16;;;5.75;94.82
14790;BME280;7486;51.010;10.366;2023-02-19T05:36:13;98210.66;;;5.67;93.95
14790;BME280;7486;51.010;10.366;2023-02-19T05:38:40;98179.56;;;5.26;94.26
14790;BME280;7486;51.010;10.366;2023-02-19T05:41:27;98231.16;;;5.41;94.07
14790;BME280;7486;51.010;10.366;2023-02-19T05:43:55;98232.66;;;5.44;93.42
14790;BME280;7486;51.010;10.366;2023-02-19T05:46:25;98238.06;;;5.42;93.30
14790;BME280;7486;51.010;10.366;2023-02-19T05:48:52;98238.38;;;5.47;92.28
14790;BME280;7486;51.010;10.366;2023-02-19T05:51:22;98247.06;;;5.48;92.14
14790;BME280;7486;51.010;10.366;2023-02-19T05:53:49;98227.41;;;5.36;92.57
14790;BME280;7486;51.010;10.366;2023-02-19T05:59:12;98227.44;;;5.28;91.47
14790;BME280;7486;51.010;10.366;2023-02-19T06:01:39;98246.72;;;5.20;92.08
14790;BME280;7486;51.010;10.366;2023-02-19T06:04:08;98247.97;;;5.32;92.53
14790;BME280;7486;51.010;10.366;2023-02-19T06:06:35;98251.19;;;5.42;92.00
14790;BME280;7486;51.010;10.366;2023-02-19T06:09:03;98246.63;;;5.36;91.82
14790;BME280;7486;51.010;10.366;2023-02-19T06:11:30;98243.53;;;5.33;91.65
14790;BME280;7486;51.010;10.366;2023-02-19T06:13:57;98252.09;;;5.57;90.33
14790;BME280;7486;51.010;10.366;2023-02-19T06:16:24;98266.84;;;5.58;90.49
14790;BME280;7486;51.010;10.366;2023-02-19T06:18:51;98265.03;;;5.59;90.22
14790;BME280;7486;51.010;10.366;2023-02-19T06:21:19;98276.69;;;5.64;89.85
14790;BME280;7486;51.010;10.366;2023-02-19T06:23:46;98271.09;;;5.67;88.68
14790;BME280;7486;51.010;10.366;2023-02-19T06:26:19;98275.78;;;5.49;89.47
14790;BME280;7486;51.010;10.366;2023-02-19T06:28:47;98279.66;;;5.31;90.32
14790;BME280;7486;51.010;10.366;2023-02-19T06:31:16;98266.38;;;5.24;90.67
14790;BME280;7486;51.010;10.366;2023-02-19T06:33:43;98284.34;;;5.43;90.56
14790;BME280;7486;51.010;10.366;2023-02-19T06:36:13;98290.91;;;5.47;90.66
14790;BME280;7486;51.010;10.366;2023-02-19T06:38:41;98287.47;;;5.47;90.53
14790;BME280;7486;51.010;10.366;2023-02-19T06:41:08;98304.69;;;5.49;90.31
14790;BME280;7486;51.010;10.366;2023-02-19T06:43:36;98297.28;;;5.53;90.12
14790;BME280;7486;51.010;10.366;2023-02-19T06:46:04;98306.97;;;5.52;90.60
14790;BME280;7486;51.010;10.366;2023-02-19T06:48:32;98316.47;;;5.61;90.56
14790;BME280;7486;51.010;10.366;2023-02-19T06:50:59;98299.44;;;5.41;91.21
14790;BME280;7486;51.010;10.366;2023-02-19T06:53:25;98324.72;;;5.50;92.11
14790;BME280;7486;51.010;10.366;2023-02-19T06:58:26;98274.22;;;5.32;91.53
14790;BME280;7486;51.010;10.366;2023-02-19T07:00:53;98331.03;;;5.25;92.44
14790;BME280;7486;51.010;10.366;2023-02-19T07:03:20;98320.84;;;5.30;93.31
14790;BME280;7486;51.010;10.366;2023-02-19T07:05:48;98327.69;;;5.47;92.41
14790;BME280;7486;51.010;10.366;2023-02-19T07:08:15;98317.81;;;5.49;91.78
14790;BME280;7486;51.010;10.366;2023-02-19T07:10:42;98332.75;;;5.49;92.25
14790;BME280;7486;51.010;10.366;2023-02-19T07:13:09;98314.22;;;5.42;91.72
14790;BME280;7486;51.010;10.366;2023-02-19T07:15:36;98342.25;;;5.58;91.48
14790;BME280;7486;51.010;10.366;2023-02-19T07:18:03;98343.41;;;5.55;91.38
14790;BME280;7486;51.010;10.366;2023-02-19T07:20:29;98344.22;;;5.56;92.05
14790;BME280;7486;51.010;10.366;2023-02-19T07:22:56;98347.28;;;5.67;91.17
14790;BME280;7486;51.010;10.366;2023-02-19T07:25:23;98349.56;;;5.71;91.63
14790;BME280;7486;51.010;10.366;2023-02-19T07:27:49;98361.13;;;5.61;91.07
14790;BME280;7486;51.010;10.366;2023-02-19T07:30:16;98354.28;;;5.44;90.84
14790;BME280;7486;51.010;10.366;2023-02-19T07:32:43;98360.53;;;5.43;92.15
14790;BME280;7486;51.010;10.366;2023-02-19T07:35:10;98358.59;;;5.29;91.37
14790;BME280;7486;51.010;10.366;2023-02-19T07:37:36;98365.84;;;5.11;92.92
14790;BME280;7486;51.010;10.366;2023-02-19T07:40:03;98361.91;;;5.23;92.09
14790;BME280;7486;51.010;10.366;2023-02-19T07:42:30;98387.97;;;5.41;91.68
14790;BME280;7486;51.010;10.366;2023-02-19T07:44:58;98387.97;;;5.41;91.32
14790;BME280;7486;51.010;10.366;2023-02-19T07:47:28;98371.59;;;5.23;91.56
14790;BME280;7486;51.010;10.366;2023-02-19T07:49:54;98390.25;;;5.36;90.87
14790;BME280;7486;51.010;10.366;2023-02-19T07:52:21;98395.72;;;5.18;91.44
14790;BME280;7486;51.010;10.366;2023-02-19T07:54:48;98402.09;;;5.32;90.61
14790;BME280;7486;51.010;10.366;2023-02-19T07:57:15;98404.22;;;5.28;90.73
14790;BME280;7486;51.010;10.366;2023-02-19T07:59:42;98409.84;;;5.17;90.54
14790;BME280;7486;51.010;10.366;2023-02-19T08:02:18;98414.78;;;5.20;90.81
14790;BME280;7486;51.010;10.366;2023-02-19T08:04:48;98271.31;;;4.32;90.03
14790;BME280;7486;51.010;10.366;2023-02-19T08:07:14;98427.56;;;4.91;90.86
14790;BME280;7486;51.010;10.366;2023-02-19T08:09:41;98436.09;;;5.09;90.96
14790;BME280;7486;51.010;10.366;2023-02-19T08:12:09;98431.00;;;5.15;90.44
14790;BME280;7486;51.010;10.366;2023-02-19T08:14:37;98440.66;;;5.31;90.26
14790;BME280;7486;51.010;10.366;2023-02-19T08:17:03;98450.38;;;5.31;89.94
14790;BME280;7486;51.010;10.366;2023-02-19T08:19:30;98448.03;;;5.36;90.23
14790;BME280;7486;51.010;10.366;2023-02-19T08:21:56;98452.13;;;5.38;89.03
14790;BME280;7486;51.010;10.366;2023-02-19T08:24:23;98455.09;;;5.35;89.74
14790;BME280;7486;51.010;10.366;2023-02-19T08:26:50;98460.84;;;5.39;89.27
14790;BME280;7486;51.010;10.366;2023-02-19T08:29:17;98429.50;;;5.29;88.81
14790;BME280;7486;51.010;10.366;2023-02-19T08:31:43;98469.19;;;5.50;87.89
14790;BME280;7486;51.010;10.366;2023-02-19T08:34:11;98480.38;;;5.36;89.05
14790;BME280;7486;51.010;10.366;2023-02-19T08:36:37;98463.34;;;5.16;89.36
14790;BME280;7486;51.010;10.366;2023-02-19T08:39:04;98487.94;;;5.15;90.12
14790;BME280;7486;51.010;10.366;2023-02-19T08:41:31;98489.56;;;5.24;90.06
14790;BME280;7486;51.010;10.366;2023-02-19T08:43:57;98494.84;;;5.16;90.25
14790;BME280;7486;51.010;10.366;2023-02-19T08:46:24;98506.31;;;5.39;88.64
14790;BME280;7486;51.010;10.366;2023-02-19T08:48:51;98502.06;;;5.30;88.97
14790;BME280;7486;51.010;10.366;2023-02-19T08:51:17;98508.31;;;5.37;88.61
14790;BME280;7486;51.010;10.366;2023-02-19T08:53:44;98518.44;;;5.64;87.67
14790;BME280;7486;51.010;10.366;2023-02-19T08:56:13;98507.59;;;5.59;87.00
14790;BME280;7486;51.010;10.366;2023-02-19T08:58:41;98512.50;;;5.71;86.54
14790;BME280;7486;51.010;10.366;2023-02-19T09:01:13;98511.38;;;5.65;87.02
14790;BME280;7486;51.010;10.366;2023-02-19T09:03:41;98497.28;;;5.58;87.64
14790;BME280;7486;51.010;10.366;2023-02-19T09:06:13;98513.16;;;5.73;87.31
14790;BME280;7486;51.010;10.366;2023-02-19T09:08:41;98499.03;;;5.65;86.87
14790;BME280;7486;51.010;10.366;2023-02-19T09:11:07;98512.66;;;5.85;85.97
14790;BME280;7486;51.010;10.366;2023-02-19T09:13:35;98515.13;;;5.79;85.64
14790;BME280;7486;51.010;10.366;2023-02-19T09:16:03;98520.69;;;5.76;86.44
14790;BME280;7486;51.010;10.366;2023-02-19T09:18:30;98520.59;;;5.61;85.98
14790;BME280;7486;51.010;10.366;2023-02-19T09:21:02;98532.22;;;5.75;85.27
14790;BME280;7486;51.010;10.366;2023-02-19T09:23:31;98496.16;;;5.44;84.27
14790;BME280;7486;51.010;10.366;2023-02-19T09:25:59;98527.66;;;5.60;84.42
14790;BME280;7486;51.010;10.366;2023-02-19T09:28:27;98503.34;;;5.50;83.68
14790;BME280;7486;51.010;10.366;2023-02-19T09:30:54;98537.47;;;5.66;83.35
14790;BME280;7486;51.010;10.366;2023-02-19T09:33:21;98540.41;;;5.80;83.93
14790;BME280;7486;51.010;10.366;2023-02-19T09:35:48;98542.06;;;5.73;83.46
14790;BME280;7486;51.010;10.366;2023-02-19T09:38:16;98546.34;;;5.65;82.90
14790;BME280;7486;51.010;10.366;2023-02-19T09:40:42;98551.75;;;5.80;83.21
14790;BME280;7486;51.010;10.366;2023-02-19T09:43:18;98556.19;;;5.80;83.54
14790;BME280;7486;51.010;10.366;2023-02-19T09:45:47;98541.13;;;5.57;83.69
14790;BME280;7486;51.010;10.366;2023-02-19T09:48:13;98539.13;;;5.59;83.34
14790;BME280;7486;51.010;10.366;2023-02-19T09:50:44;98553.09;;;5.68;84.09
14790;BME280;7486;51.010;10.366;2023-02-19T09:53:20;98556.81;;;5.90;83.58
14790;BME280;7486;51.010;10.366;2023-02-19T09:55:49;98564.47;;;6.15;82.29
14790;BME280;7486;51.010;10.366;2023-02-19T10:00:48;98566.28;;;6.15;81.65
14790;BME280;7486;51.010;10.366;2023-02-19T10:03:36;98597.69;;;6.08;82.47
14790;BME280;7486;51.010;10.366;2023-02-19T10:06:26;98598.91;;;5.82;83.94
14790;BME280;7486;51.010;10.366;2023-02-19T10:11:35;98617.13;;;4.68;91.48
14790;BME280;7486;51.010;10.366;2023-02-19T10:14:07;98646.78;;;4.27;94.93
14790;BME280;7486;51.010;10.366;2023-02-19T10:16:39;98652.88;;;3.84;95.81
14790;BME280;7486;51.010;10.366;2023-02-19T10:19:10;98605.41;;;3.44;97.38
14790;BME280;7486;51.010;10.366;2023-02-19T10:21:37;98656.72;;;3.90;95.04
14790;BME280;7486;51.010;10.366;2023-02-19T10:24:05;98648.34;;;3.51;98.92
14790;BME280;7486;51.010;10.366;2023-02-19T10:26:32;98621.88;;;3.36;98.72
14790;BME280;7486;51.010;10.366;2023-02-19T10:29:00;98673.19;;;3.82;99.74
14790;BME280;7486;51.010;10.366;2023-02-19T10:31:30;98687.09;;;3.83;97.96
14790;BME280;7486;51.010;10.366;2023-02-19T10:33:59;98679.41;;;3.63;97.55
14790;BME280;7486;51.010;10.366;2023-02-19T10:36:35;98685.31;;;3.65;98.55
14790;BME280;7486;51.010;10.366;2023-02-19T10:39:23;98695.72;;;3.57;98.04
14790;BME280;7486;51.010;10.366;2023-02-19T10:41:53;98693.28;;;3.56;97.29
14790;BME280;7486;51.010;10.366;2023-02-19T10:44:29;98706.28;;;3.65;96.01
14790;BME280;7486;51.010;10.366;2023-02-19T10:47:01;98719.00;;;3.60;95.34
14790;BME280;7486;51.010;10.366;2023-02-19T10:52:01;98687.41;;;3.44;95.19
14790;BME280;7486;51.010;10.366;2023-02-19T10:54:35;98719.53;;;3.64;94.97
14790;BME280;7486;51.010;10.366;2023-02-19T10:59:52;98729.63;;;3.59;95.89
14790;BME280;7486;51.010;10.366;2023-02-19T11:02:20;98747.50;;;3.63;97.04
14790;BME280;7486;51.010;10.366;2023-02-19T11:07:38;98753.97;;;4.30;92.94
14790;BME280;7486;51.010;10.366;2023-02-19T11:10:19;98754.28;;;4.27;92.76
14790;BME280;7486;51.010;10.366;2023-02-19T11:12:48;98758.50;;;4.20;91.07
14790;BME280;7486;51.010;10.366;2023-02-19T11:15:20;98754.84;;;4.39;91.93
14790;BME280;7486;51.010;10.366;2023-02-19T11:20:22;98751.25;;;4.14;91.64
14790;BME280;7486;51.010;10.366;2023-02-19T11:22:49;98767.53;;;4.26;90.73
14790;BME280;7486;51.010;10.366;2023-02-19T11:25:18;98780.22;;;4.30;89.60
14790;BME280;7486;51.010;10.366;2023-02-19T11:30:31;98780.28;;;4.38;88.88
14790;BME280;7486;51.010;10.366;2023-02-19T11:35:44;98790.19;;;4.52;88.07
14790;BME280;7486;51.010;10.366;2023-02-19T11:38:13;98785.13;;;4.51;87.85
14790;BME280;7486;51.010;10.366;2023-02-19T11:50:24;98768.78;;;5.25;85.30
14790;BME280;7486;51.010;10.366;2023-02-19T11:55:52;98776.84;;;5.23;85.20
14790;BME280;7486;51.010;10.366;2023-02-19T12:12:25;98796.97;;;5.56;82.75
14790;BME280;7486;51.010;10.366;2023-02-19T12:15:03;98803.53;;;5.44;82.98
14790;BME280;7486;51.010;10.366;2023-02-19T12:20:20;98805.13;;;5.11;84.37
14790;BME280;7486;51.010;10.366;2023-02-19T12:37:34;98799.06;;;5.11;83.89
14790;BME280;7486;51.010;10.366;2023-02-19T12:43:18;98767.41;;;4.27;87.75
14790;BME280;7486;51.010;10.366;2023-02-19T12:48:28;98799.59;;;4.63;87.12
14790;BME280;7486;51.010;10.366;2023-02-19T12:51:04;98795.66;;;4.59;88.43
14790;BME280;7486;51.010;10.366;2023-02-19T12:53:47;98795.88;;;4.22;90.08
14790;BME280;7486;51.010;10.366;2023-02-19T12:56:19;98804.63;;;4.48;87.52
14790;BME280;7486;51.010;10.366;2023-02-19T12:58:52;98809.47;;;4.43;87.86
14790;BME280;7486;51.010;10.366;2023-02-19T13:01:25;98817.97;;;4.37;88.44
14790;BME280;7486;51.010;10.366;2023-02-19T13:04:25;98813.03;;;4.34;89.09
14790;BME280;7486;51.010;10.366;2023-02-19T13:09:39;98821.66;;;4.52;87.29
14790;BME280;7486;51.010;10.366;2023-02-19T13:12:17;98808.97;;;4.22;88.72
14790;BME280;7486;51.010;10.366;2023-02-19T13:14:50;98839.28;;;4.42;88.64
14790;BME280;7486;51.010;10.366;2023-02-19T13:17:40;98834.78;;;4.52;88.70
14790;BME280;7486;51.010;10.366;2023-02-19T13:20:29;98829.81;;;4.41;88.22
14790;BME280;7486;51.010;10.366;2023-02-19T13:23:06;98826.78;;;4.36;90.32
14790;BME280;7486;51.010;10.366;2023-02-19T13:36:10;98859.00;;;4.64;88.49
14790;BME280;7486;51.010;10.366;2023-02-19T13:38:40;98854.78;;;4.71;89.05
14790;BME280;7486;51.010;10.366;2023-02-19T13:41:38;98854.28;;;4.50;88.08
14790;BME280;7486;51.010;10.366;2023-02-19T13:44:24;98863.50;;;4.80;87.21
14790;BME280;7486;51.010;10.366;2023-02-19T13:46:51;98842.59;;;4.88;86.64
14790;BME280;7486;51.010;10.366;2023-02-19T13:54:45;98871.16;;;4.47;87.29
14790;BME280;7486;51.010;10.366;2023-02-19T13:59:49;98871.28;;;4.28;87.75
14790;BME280;7486;51.010;10.366;2023-02-19T14:07:19;98894.03;;;4.81;85.35
14790;BME280;7486;51.010;10.366;2023-02-19T14:09:47;98892.97;;;4.48;85.94
14790;BME280;7486;51.010;10.366;2023-02-19T14:14:49;98894.53;;;4.23;87.57
14790;BME280;7486;51.010;10.366;2023-02-19T14:28:13;98873.09;;;3.92;88.24
14790;BME280;7486;51.010;10.366;2023-02-19T14:33:33;98878.72;;;4.50;85.46
14790;BME280;7486;51.010;10.366;2023-02-19T14:38:38;98883.06;;;4.59;85.98
14790;BME280;7486;51.010;10.366;2023-02-19T14:41:09;98886.91;;;4.47;86.13
14790;BME280;7486;51.010;10.366;2023-02-19T14:43:39;98870.31;;;4.64;84.86
14790;BME280;7486;51.010;10.366;2023-02-19T14:48:48;98846.50;;;4.84;82.80
14790;BME280;7486;51.010;10.366;2023-02-19T14:51:27;98886.13;;;5.16;83.18
14790;BME280;7486;51.010;10.366;2023-02-19T14:53:57;98878.13;;;5.00;81.10
14790;BME280;7486;51.010;10.366;2023-02-19T14:56:27;98887.59;;;4.93;81.66
14790;BME280;7486;51.010;10.366;2023-02-19T14:59:25;98905.16;;;4.75;82.52
14790;BME280;7486;51.010;10.366;2023-02-19T15:02:01;98896.84;;;4.79;82.09
14790;BME280;7486;51.010;10.366;2023-02-19T15:04:33;98907.81;;;4.57;82.46
14790;BME280;7486;51.010;10.366;2023-02-19T15:07:02;98906.97;;;4.56;85.78
14790;BME280;7486;51.010;10.366;2023-02-19T15:09:36;98918.16;;;5.02;84.46
14790;BME280;7486;51.010;10.366;2023-02-19T15:12:05;98915.09;;;5.32;82.13
14790;BME280;7486;51.010;10.366;2023-02-19T15:14:32;98905.31;;;5.42;80.01
14790;BME280;7486;51.010;10.366;2023-02-19T15:17:02;98902.47;;;5.10;78.36
14790;BME280;7486;51.010;10.366;2023-02-19T15:19:34;98904.75;;;4.87;80.16
14790;BME280;7486;51.010;10.366;2023-02-19T15:22:02;98920.13;;;5.00;80.07
14790;BME280;7486;51.010;10.366;2023-02-19T15:24:28;98928.41;;;4.34;81.82
14790;BME280;7486;51.010;10.366;2023-02-19T15:26:58;98937.84;;;4.27;83.96
14790;BME280;7486;51.010;10.366;2023-02-19T15:29:26;98935.28;;;4.35;82.74
14790;BME280;7486;51.010;10.366;2023-02-19T15:31:58;98935.09;;;4.46;83.97
14790;BME280;7486;51.010;10.366;2023-02-19T15:34:27;98920.75;;;4.23;82.87
14790;BME280;7486;51.010;10.366;2023-02-19T15:37:02;98916.66;;;4.38;84.33
14790;BME280;7486;51.010;10.366;2023-02-19T15:39:38;98935.22;;;4.62;83.00
14790;BME280;7486;51.010;10.366;2023-02-19T15:42:07;98929.59;;;4.75;82.40
14790;BME280;7486;51.010;10.366;2023-02-19T15:44:59;98932.56;;;4.98;81.67
14790;BME280;7486;51.010;10.366;2023-02-19T15:47:29;98927.84;;;4.84;81.00
14790;BME280;7486;51.010;10.366;2023-02-19T15:50:23;98901.94;;;4.63;82.99
14790;BME280;7486;51.010;10.366;2023-02-19T15:58:35;98925.38;;;5.00;79.12
14790;BME280;7486;51.010;10.366;2023-02-19T16:01:05;98913.22;;;4.99;78.79
14790;BME280;7486;51.010;10.366;2023-02-19T16:03:38;98923.47;;;5.10;79.15